KARA/ARA METAR and TAF weather

Enter ICAO airport designator
Station Type Date Time Source
KARA METAR 2021/09/28 02:53 UTC NOAA

KARA 280253Z AUTO 13004KT 10SM FEW006 24/24 A2999 RMK AO2 SLP155 T02440244 50001


Station Type Date Time Source
KARA Decoded METAR 2021/09/28 02:53 UTC NOAA

NEW IBERIA ACADIANA REGIONAL, LA, United States (KARA) 30-02N 091-53W 18M
Sep 27, 2021 - 10:53 PM EDT / 2021.09.28 0253 UTC
Wind: from the SE (130 degrees) at 5 MPH (4 KT):0
Visibility: 10 mile(s):0
Sky conditions: mostly clear
Temperature: 75.9 F (24.4 C)
Dew Point: 75.9 F (24.4 C)
Relative Humidity: 100%
Pressure (altimeter): 29.99 in. Hg (1015 hPa)
Pressure tendency: 0.00 inches (0.1 hPa) higher than three hours ago
ob: KARA 280253Z AUTO 13004KT 10SM FEW006 24/24 A2999 RMK AO2 SLP155 T02440244 50001
cycle: 3

Station Type Date Time Source
KARA TAF 2021/09/28 02:27 UTC NOAA

TAF KARA 280223Z 2802/2824 13005KT P6SM SCT015 BKN050
TEMPO 2802/2804 P6SM BKN007 BKN015 BKN050
FM280800 12004KT P6SM VCTS BKN015CB OVC050
FM281300 15006KT P6SM VCTS OVC020CB PROB30 2813/2818 2SM TSRA BR OVC015CB
FM281800 20006KT P6SM VCTS OVC020CB PROB30 2818/2824 2SM TSRA BR OVC015CB

Example: see airport list